Time;durP1;ratioP1;P1;durP2;ratioP2;P2;SDS_P1;SDS_P2;PMS_P1;PMS_P2;Temp;Humidity;BMP_temperature;BMP_pressure;BME280_temperature;BME280_humidity;BME280_pressure;Samples;Min_cycle;Max_cycle;Signal;HPM_P1;HPM_P2
2021/11/29 00:00:01;;;;;;;;;;;6.00;62.80;;;;;;5054901;28;19916;-66
2021/11/29 00:02:27;;;;;;;;;;;5.90;62.70;;;;;;5072819;28;19909;-65
2021/11/29 00:04:53;;;;;;;;;;;5.90;62.70;;;;;;5072786;28;20484;-65
2021/11/29 00:07:19;;;;;;;;;;;5.90;62.70;;;;;;5072731;28;19950;-65
2021/11/29 00:09:44;;;;;;;;;;;5.80;62.60;;;;;;5072682;28;19908;-65
2021/11/29 00:12:10;;;;;;;;;;;5.80;62.60;;;;;;5054587;28;20289;-65
2021/11/29 00:14:36;;;;;;;;;;;5.80;62.70;;;;;;5072469;28;20293;-65
2021/11/29 00:17:01;;;;;;;;;;;5.80;62.70;;;;;;5072547;28;19999;-65
2021/11/29 00:19:27;;;;;;;;;;;5.80;62.70;;;;;;5072570;28;19904;-65
2021/11/29 00:21:52;;;;;;;;;;;5.70;62.70;;;;;;5072646;28;19956;-65
2021/11/29 00:24:18;;;;;;;;;;;5.70;62.70;;;;;;5072650;28;19905;-65
2021/11/29 00:26:44;;;;;;;;;;;5.70;62.80;;;;;;5072898;28;19978;-65
2021/11/29 00:29:09;;;;;;;;;;;5.70;62.80;;;;;;5072493;28;19905;-65
2021/11/29 00:31:35;;;;;;;;;;;5.70;62.80;;;;;;5072424;28;20289;-65
2021/11/29 00:34:01;;;;;;;;;;;5.70;62.80;;;;;;5072489;28;19909;-65
2021/11/29 00:36:26;;;;;;;;;;;5.70;62.80;;;;;;5072414;28;19912;-65
2021/11/29 00:38:52;;;;;;;;;;;5.70;62.90;;;;;;5072374;28;19951;-65
2021/11/29 00:41:18;;;;;;;;;;;5.70;62.90;;;;;;5072429;28;19911;-65
2021/11/29 00:43:44;;;;;;;;;;;5.70;62.90;;;;;;5073116;28;20381;-65
2021/11/29 00:46:09;;;;;;;;;;;5.70;62.90;;;;;;5075952;28;19912;-65
2021/11/29 00:48:35;;;;;;;;;;;5.60;62.80;;;;;;5075856;28;19916;-65
2021/11/29 00:51:01;;;;;;;;;;;5.70;62.90;;;;;;5075796;28;20293;-65
2021/11/29 00:53:27;;;;;;;;;;;5.70;62.80;;;;;;5075830;28;19913;-65
2021/11/29 00:55:52;;;;;;;;;;;5.70;62.80;;;;;;5075839;28;19908;-64
2021/11/29 00:58:18;;;;;;;;;;;5.60;62.80;;;;;;5075765;28;19908;-65
2021/11/29 01:00:44;;;;;;;;;;;5.60;62.80;;;;;;5075695;28;19908;-65
2021/11/29 01:03:09;;;;;;;;;;;5.60;62.80;;;;;;5075667;28;19908;-65
2021/11/29 01:05:35;;;;;;;;;;;5.60;62.80;;;;;;5075671;28;20422;-65
2021/11/29 01:08:01;;;;;;;;;;;5.50;62.80;;;;;;5057614;28;19908;-65
2021/11/29 01:10:27;;;;;;;;;;;5.50;62.90;;;;;;5075537;28;19958;-65
2021/11/29 01:12:53;;;;;;;;;;;5.60;63.00;;;;;;5057479;28;19913;-65
2021/11/29 01:15:20;;;;;;;;;;;5.50;62.90;;;;;;5075267;28;19927;-65
2021/11/29 01:17:46;;;;;;;;;;;5.50;63.00;;;;;;5075676;28;19966;-65
2021/11/29 01:20:12;;;;;;;;;;;5.50;63.00;;;;;;5075410;28;19909;-65
2021/11/29 01:22:39;;;;;;;;;;;5.50;63.00;;;;;;5075393;28;19909;-65
2021/11/29 01:25:05;;;;;;;;;;;5.50;63.10;;;;;;5075252;28;19987;-65
2021/11/29 01:27:33;;;;;;;;;;;5.50;63.10;;;;;;5075196;28;19970;-65
2021/11/29 01:29:59;;;;;;;;;;;5.50;63.00;;;;;;5075278;28;19999;-65
2021/11/29 01:32:25;;;;;;;;;;;5.40;62.90;;;;;;5075105;28;20448;-65
2021/11/29 01:34:50;;;;;;;;;;;5.40;62.90;;;;;;5075257;28;19909;-65
2021/11/29 01:37:16;;;;;;;;;;;5.40;62.90;;;;;;5075069;28;19912;-65
2021/11/29 01:39:42;;;;;;;;;;;5.40;62.80;;;;;;5074971;28;19956;-65
2021/11/29 01:42:08;;;;;;;;;;;5.40;62.90;;;;;;5075001;28;19908;-65
2021/11/29 01:44:35;;;;;;;;;;;5.30;62.90;;;;;;5057184;28;19916;-64
2021/11/29 01:47:01;;;;;;;;;;;5.30;63.00;;;;;;5057095;28;19915;-65
2021/11/29 01:49:26;;;;;;;;;;;5.30;63.00;;;;;;5074937;28;19905;-65
2021/11/29 01:51:52;;;;;;;;;;;5.30;63.10;;;;;;5074961;28;19912;-64
2021/11/29 01:54:18;;;;;;;;;;;5.20;63.10;;;;;;5075028;28;19909;-65
2021/11/29 01:56:45;;;;;;;;;;;5.20;63.10;;;;;;5074343;28;19947;-65
2021/11/29 01:59:11;;;;;;;;;;;5.20;63.20;;;;;;5074844;28;19916;-65
2021/11/29 02:01:36;;;;;;;;;;;5.20;63.10;;;;;;5074748;28;19913;-65
2021/11/29 02:04:03;;;;;;;;;;;5.20;63.20;;;;;;5056863;28;19996;-64
2021/11/29 02:06:30;;;;;;;;;;;5.20;63.30;;;;;;5074334;28;20346;-65
2021/11/29 02:08:56;;;;;;;;;;;5.20;63.40;;;;;;5074358;28;19916;-65
2021/11/29 02:11:22;;;;;;;;;;;5.20;63.40;;;;;;5074129;28;19912;-65
2021/11/29 02:13:48;;;;;;;;;;;5.20;63.40;;;;;;5073978;28;19909;-65
2021/11/29 02:16:14;;;;;;;;;;;5.30;63.50;;;;;;5074187;28;19916;-65
2021/11/29 02:18:40;;;;;;;;;;;5.30;63.40;;;;;;5074108;28;19909;-64
2021/11/29 02:21:08;;;;;;;;;;;5.40;63.40;;;;;;5074056;28;19909;-65
2021/11/29 02:23:35;;;;;;;;;;;5.40;63.40;;;;;;5073971;28;20358;-65
2021/11/29 02:26:01;;;;;;;;;;;5.40;63.30;;;;;;5073893;28;20003;-65
2021/11/29 02:28:27;;;;;;;;;;;5.50;63.30;;;;;;5073858;28;19909;-65
2021/11/29 02:30:53;;;;;;;;;;;5.50;63.30;;;;;;5073790;28;19917;-65
2021/11/29 02:33:18;;;;;;;;;;;5.50;63.30;;;;;;5073859;28;20358;-65
2021/11/29 02:35:44;;;;;;;;;;;5.60;63.40;;;;;;5073841;28;20366;-65
2021/11/29 02:38:10;;;;;;;;;;;5.60;63.20;;;;;;5073684;28;20365;-65
2021/11/29 02:40:35;;;;;;;;;;;5.70;63.20;;;;;;5073795;28;19958;-65
2021/11/29 02:43:01;;;;;;;;;;;5.70;63.20;;;;;;5073667;28;20385;-65
2021/11/29 02:45:27;;;;;;;;;;;5.70;63.10;;;;;;5073596;28;19909;-65
2021/11/29 02:47:53;;;;;;;;;;;5.70;63.10;;;;;;5073498;28;19912;-65
2021/11/29 02:50:19;;;;;;;;;;;5.70;63.00;;;;;;5073606;28;19958;-65
2021/11/29 02:52:45;;;;;;;;;;;5.80;63.00;;;;;;5073420;28;19994;-65
2021/11/29 02:55:11;;;;;;;;;;;5.80;63.00;;;;;;5073509;28;19908;-65
2021/11/29 02:57:37;;;;;;;;;;;5.80;62.90;;;;;;5073473;28;19915;-65
2021/11/29 03:00:07;;;;;;;;;;;5.80;62.80;;;;;;5073371;28;19947;-65
2021/11/29 03:02:33;;;;;;;;;;;5.80;62.70;;;;;;5073296;28;19955;-65
2021/11/29 03:04:59;;;;;;;;;;;5.80;62.50;;;;;;5073377;28;19959;-65
2021/11/29 03:07:24;;;;;;;;;;;5.80;62.40;;;;;;5072459;28;19916;-65
2021/11/29 03:09:50;;;;;;;;;;;5.80;62.30;;;;;;5073264;28;20303;-65
2021/11/29 03:12:16;;;;;;;;;;;5.90;62.30;;;;;;5073148;28;19913;-65
2021/11/29 03:14:42;;;;;;;;;;;5.90;62.30;;;;;;5055094;28;19921;-64
2021/11/29 03:17:08;;;;;;;;;;;5.90;62.30;;;;;;5073220;28;19908;-65
2021/11/29 03:19:34;;;;;;;;;;;5.90;62.40;;;;;;5073163;28;20324;-65
2021/11/29 03:22:01;;;;;;;;;;;5.90;62.30;;;;;;5073127;28;19987;-65
2021/11/29 03:24:26;;;;;;;;;;;5.90;62.30;;;;;;5073181;28;20320;-65
2021/11/29 03:26:52;;;;;;;;;;;5.90;62.20;;;;;;5073026;28;19965;-65
2021/11/29 03:29:20;;;;;;;;;;;5.90;62.30;;;;;;5073084;28;19962;-65
2021/11/29 03:31:51;;;;;;;;;;;5.90;62.30;;;;;;5072914;28;19967;-65
2021/11/29 03:34:16;;;;;;;;;;;5.90;62.20;;;;;;5073066;28;19915;-65
2021/11/29 03:36:43;;;;;;;;;;;5.90;62.10;;;;;;5073015;28;19909;-65
2021/11/29 03:39:11;;;;;;;;;;;5.90;62.00;;;;;;5072937;28;20324;-65
2021/11/29 03:41:37;;;;;;;;;;;5.90;62.00;;;;;;5072977;28;20347;-65
2021/11/29 03:44:03;;;;;;;;;;;5.90;61.80;;;;;;5072962;28;19912;-65
2021/11/29 03:46:29;;;;;;;;;;;5.90;61.80;;;;;;5072790;28;20418;-65
2021/11/29 03:48:54;;;;;;;;;;;5.90;61.70;;;;;;5072835;28;20002;-65
2021/11/29 03:51:20;;;;;;;;;;;5.90;61.50;;;;;;5072770;28;19916;-65
2021/11/29 03:53:45;;;;;;;;;;;5.90;61.40;;;;;;5072777;28;19995;-65
2021/11/29 03:56:11;;;;;;;;;;;5.80;61.20;;;;;;5072762;28;19915;-65
2021/11/29 03:58:37;;;;;;;;;;;5.80;61.30;;;;;;5072743;28;19916;-65
2021/11/29 04:01:03;;;;;;;;;;;5.80;61.20;;;;;;5072699;28;19991;-65
2021/11/29 04:03:28;;;;;;;;;;;5.80;61.30;;;;;;5072735;28;20278;-65
2021/11/29 04:05:56;;;;;;;;;;;5.80;61.30;;;;;;5072653;28;19909;-65
2021/11/29 04:08:21;;;;;;;;;;;5.80;61.30;;;;;;5072549;28;19915;-65
2021/11/29 04:10:47;;;;;;;;;;;5.80;61.30;;;;;;5072491;28;19995;-65
2021/11/29 04:13:13;;;;;;;;;;;5.80;61.30;;;;;;5072605;28;19962;-65
2021/11/29 04:15:38;;;;;;;;;;;5.80;61.30;;;;;;5054444;28;20302;-65
2021/11/29 04:18:04;;;;;;;;;;;5.80;61.30;;;;;;5072745;28;19908;-65
2021/11/29 04:20:30;;;;;;;;;;;5.80;61.40;;;;;;5076147;28;19960;-65
2021/11/29 04:22:56;;;;;;;;;;;5.70;61.30;;;;;;5076283;28;20389;-65
2021/11/29 04:25:24;;;;;;;;;;;5.70;61.30;;;;;;5058511;28;19920;-65
2021/11/29 04:27:50;;;;;;;;;;;5.70;61.40;;;;;;5076358;28;19909;-65
2021/11/29 04:30:18;;;;;;;;;;;5.70;61.40;;;;;;5076230;28;19909;-65
2021/11/29 04:32:45;;;;;;;;;;;5.70;61.50;;;;;;5076230;28;19912;-66
2021/11/29 04:35:11;;;;;;;;;;;5.70;61.50;;;;;;5076123;28;19999;-65
2021/11/29 04:37:37;;;;;;;;;;;5.70;61.50;;;;;;5076071;28;20431;-65
2021/11/29 04:40:04;;;;;;;;;;;5.70;61.60;;;;;;5075967;28;19908;-65
2021/11/29 04:42:30;;;;;;;;;;;5.70;61.70;;;;;;5076257;28;20330;-65
2021/11/29 04:44:56;;;;;;;;;;;5.70;61.70;;;;;;5075814;28;19951;-65
2021/11/29 04:47:21;;;;;;;;;;;5.70;61.70;;;;;;5075912;28;19936;-65
2021/11/29 04:49:47;;;;;;;;;;;5.70;61.70;;;;;;5075790;28;19909;-65
2021/11/29 04:52:13;;;;;;;;;;;5.70;61.70;;;;;;5075685;28;19962;-65
2021/11/29 04:54:38;;;;;;;;;;;5.70;61.70;;;;;;5075810;28;19909;-65
2021/11/29 04:57:04;;;;;;;;;;;5.70;61.60;;;;;;5075724;28;20321;-65
2021/11/29 04:59:30;;;;;;;;;;;5.70;61.60;;;;;;5075744;28;19916;-64
2021/11/29 05:01:55;;;;;;;;;;;5.70;61.50;;;;;;5057702;28;19999;-65
2021/11/29 05:04:21;;;;;;;;;;;5.70;61.50;;;;;;5057538;28;20259;-65
2021/11/29 05:06:47;;;;;;;;;;;5.70;61.50;;;;;;5075472;28;19909;-65
2021/11/29 05:09:13;;;;;;;;;;;5.70;61.50;;;;;;5075419;28;19904;-65
2021/11/29 05:11:39;;;;;;;;;;;5.70;61.40;;;;;;5075304;28;19912;-65
2021/11/29 05:14:05;;;;;;;;;;;5.70;61.40;;;;;;5075212;28;19966;-65
2021/11/29 05:16:32;;;;;;;;;;;5.70;62.10;;;;;;5075339;28;19916;-65
2021/11/29 05:18:58;;;;;;;;;;;5.70;61.30;;;;;;5075171;28;19955;-65
2021/11/29 05:21:23;;;;;;;;;;;5.70;61.20;;;;;;5075272;28;19909;-65
2021/11/29 05:23:49;;;;;;;;;;;5.70;61.10;;;;;;5075151;28;19915;-66
2021/11/29 05:26:22;;;;;;;;;;;5.70;61.10;;;;;;5075119;28;19958;-65
2021/11/29 05:28:47;;;;;;;;;;;5.70;61.10;;;;;;5074971;28;20388;-64
2021/11/29 05:31:13;;;;;;;;;;;5.70;61.00;;;;;;5073902;28;19912;-65
2021/11/29 05:33:39;;;;;;;;;;;5.70;61.00;;;;;;5075016;28;19912;-65
2021/11/29 05:36:05;;;;;;;;;;;5.70;61.00;;;;;;5074944;28;20317;-65
2021/11/29 05:38:31;;;;;;;;;;;5.60;60.90;;;;;;5074800;28;20341;-65
2021/11/29 05:40:56;;;;;;;;;;;5.60;60.80;;;;;;5074931;28;19904;-65
2021/11/29 05:43:22;;;;;;;;;;;5.60;60.80;;;;;;5074820;28;19909;-65
2021/11/29 05:45:47;;;;;;;;;;;5.60;60.80;;;;;;5074637;28;19908;-65
2021/11/29 05:48:13;;;;;;;;;;;5.60;60.80;;;;;;5074732;28;19905;-65
2021/11/29 05:50:39;;;;;;;;;;;5.60;60.80;;;;;;5074650;28;19908;-65
2021/11/29 05:53:05;;;;;;;;;;;5.60;60.90;;;;;;5074469;28;19919;-65
2021/11/29 05:55:30;;;;;;;;;;;5.60;60.90;;;;;;5074574;28;19951;-65
2021/11/29 05:57:56;;;;;;;;;;;5.60;60.90;;;;;;5074484;28;20012;-65
2021/11/29 06:00:22;;;;;;;;;;;5.60;60.90;;;;;;5074462;28;19908;-65
2021/11/29 06:02:48;;;;;;;;;;;5.60;60.90;;;;;;5074482;28;20362;-65
2021/11/29 06:05:14;;;;;;;;;;;5.60;60.90;;;;;;5074437;28;19916;-65
2021/11/29 06:07:40;;;;;;;;;;;5.50;60.80;;;;;;5074360;28;20290;-65
2021/11/29 06:10:06;;;;;;;;;;;5.60;60.90;;;;;;5056342;28;19961;-65
2021/11/29 06:12:32;;;;;;;;;;;5.60;60.90;;;;;;5074061;28;20328;-65
2021/11/29 06:14:57;;;;;;;;;;;5.60;60.90;;;;;;5073998;28;20011;-65
2021/11/29 06:17:23;;;;;;;;;;;5.60;60.80;;;;;;5074076;28;19932;-65
2021/11/29 06:19:49;;;;;;;;;;;5.60;60.80;;;;;;5074009;28;20377;-65
2021/11/29 06:22:14;;;;;;;;;;;5.60;60.80;;;;;;5073951;28;19912;-64
2021/11/29 06:24:40;;;;;;;;;;;5.60;60.80;;;;;;5074032;28;20377;-65
2021/11/29 06:27:06;;;;;;;;;;;5.70;60.80;;;;;;5074027;28;19916;-65
2021/11/29 06:29:31;;;;;;;;;;;5.70;60.70;;;;;;5073881;28;19932;-65
2021/11/29 06:31:57;;;;;;;;;;;5.70;60.80;;;;;;5073562;28;19912;-65
2021/11/29 06:34:25;;;;;;;;;;;5.70;60.70;;;;;;5073527;28;19909;-65
2021/11/29 06:36:51;;;;;;;;;;;5.70;60.70;;;;;;5073746;28;19915;-65
2021/11/29 06:39:19;;;;;;;;;;;5.70;60.80;;;;;;5073554;28;19986;-65
2021/11/29 06:41:45;;;;;;;;;;;5.70;60.80;;;;;;5073418;28;19908;-65
2021/11/29 06:44:10;;;;;;;;;;;5.70;60.70;;;;;;5073623;28;19908;-65
2021/11/29 06:46:36;;;;;;;;;;;5.70;60.80;;;;;;5073558;28;20274;-65
2021/11/29 06:49:01;;;;;;;;;;;5.70;60.70;;;;;;5073533;28;20281;-65
2021/11/29 06:51:27;;;;;;;;;;;5.70;60.70;;;;;;5073394;28;20366;-65
2021/11/29 06:53:53;;;;;;;;;;;5.70;60.70;;;;;;5073384;28;19908;-65
2021/11/29 06:56:18;;;;;;;;;;;5.70;60.60;;;;;;5073286;28;19904;-65
2021/11/29 06:58:44;;;;;;;;;;;5.70;60.50;;;;;;5055224;28;19909;-65
2021/11/29 07:01:09;;;;;;;;;;;5.70;60.60;;;;;;5072953;28;19904;-65
2021/11/29 07:03:35;;;;;;;;;;;5.70;60.50;;;;;;5073516;28;19916;-65
2021/11/29 07:06:02;;;;;;;;;;;5.80;60.60;;;;;;5073090;28;19943;-65
2021/11/29 07:08:28;;;;;;;;;;;5.70;60.50;;;;;;5073178;28;19909;-68
2021/11/29 07:10:54;;;;;;;;;;;5.80;60.50;;;;;;5073177;28;19916;-65
2021/11/29 07:13:20;;;;;;;;;;;5.70;60.50;;;;;;5073334;28;20366;-65
2021/11/29 07:15:45;;;;;;;;;;;5.70;60.40;;;;;;5072901;28;19921;-65
2021/11/29 07:18:13;;;;;;;;;;;5.70;60.40;;;;;;5073140;28;19912;-65
2021/11/29 07:20:39;;;;;;;;;;;5.70;60.30;;;;;;5072967;28;20358;-65
2021/11/29 07:23:04;;;;;;;;;;;5.70;60.20;;;;;;5073139;28;19995;-65
2021/11/29 07:25:30;;;;;;;;;;;5.70;60.20;;;;;;5073045;28;20445;-65
2021/11/29 07:27:56;;;;;;;;;;;5.70;60.30;;;;;;5072856;28;19909;-65
2021/11/29 07:30:23;;;;;;;;;;;5.70;60.50;;;;;;5072988;28;20405;-65
2021/11/29 07:32:49;;;;;;;;;;;5.70;60.50;;;;;;5072904;28;19913;-65
2021/11/29 07:35:15;;;;;;;;;;;5.70;60.40;;;;;;5073014;28;19909;-65
2021/11/29 07:37:42;;;;;;;;;;;5.70;60.50;;;;;;5072923;28;19999;-65
2021/11/29 07:40:08;;;;;;;;;;;5.70;60.50;;;;;;5072791;28;19943;-65
2021/11/29 07:42:34;;;;;;;;;;;5.70;60.50;;;;;;5072925;28;19954;-65
2021/11/29 07:45:00;;;;;;;;;;;5.70;60.50;;;;;;5072881;28;19912;-65
2021/11/29 07:47:26;;;;;;;;;;;5.70;60.50;;;;;;5072811;28;20381;-65
2021/11/29 07:49:52;;;;;;;;;;;5.70;60.60;;;;;;5072806;28;19909;-64
2021/11/29 07:52:18;;;;;;;;;;;5.70;60.50;;;;;;5072679;28;19938;-65
2021/11/29 07:54:44;;;;;;;;;;;5.70;60.50;;;;;;5075442;28;19909;-65
2021/11/29 07:57:12;;;;;;;;;;;5.70;60.50;;;;;;5076947;28;19912;-65
2021/11/29 07:59:38;;;;;;;;;;;5.70;60.60;;;;;;5076804;28;19965;-65
2021/11/29 08:02:04;;;;;;;;;;;5.80;60.60;;;;;;5076726;28;19904;-65
2021/11/29 08:04:29;;;;;;;;;;;5.80;60.60;;;;;;5076765;28;20452;-65
2021/11/29 08:06:55;;;;;;;;;;;5.80;60.70;;;;;;5076605;28;19955;-65
2021/11/29 08:09:21;;;;;;;;;;;5.80;60.60;;;;;;5076468;28;19911;-65
2021/11/29 08:11:46;;;;;;;;;;;5.90;60.80;;;;;;5076473;28;20293;-65
2021/11/29 08:14:12;;;;;;;;;;;5.90;60.70;;;;;;5076355;28;19916;-65
2021/11/29 08:16:38;;;;;;;;;;;5.90;60.60;;;;;;5076528;28;20011;-65
2021/11/29 08:19:03;;;;;;;;;;;6.00;60.50;;;;;;5076439;28;19904;-65
2021/11/29 08:21:29;;;;;;;;;;;6.00;60.80;;;;;;5076496;28;20354;-65
2021/11/29 08:23:54;;;;;;;;;;;6.00;60.60;;;;;;5076318;28;19934;-65
2021/11/29 08:26:20;;;;;;;;;;;6.10;60.70;;;;;;5076203;28;19905;-65
2021/11/29 08:28:46;;;;;;;;;;;6.20;60.80;;;;;;5076207;28;20015;-65
2021/11/29 08:31:11;;;;;;;;;;;6.30;61.40;;;;;;5076031;28;19959;-65
2021/11/29 08:33:37;;;;;;;;;;;6.30;60.50;;;;;;5076186;28;19908;-65
2021/11/29 08:36:03;;;;;;;;;;;6.40;60.30;;;;;;5076116;28;19912;-65
2021/11/29 08:38:29;;;;;;;;;;;6.40;60.20;;;;;;5075893;28;19915;-65
2021/11/29 08:40:54;;;;;;;;;;;6.50;60.10;;;;;;5076372;28;19962;-65
2021/11/29 08:43:20;;;;;;;;;;;6.50;60.00;;;;;;5076017;28;20003;-65
2021/11/29 08:45:47;;;;;;;;;;;6.50;60.00;;;;;;5057980;28;19915;-65
2021/11/29 08:48:13;;;;;;;;;;;6.60;59.90;;;;;;5075935;28;19905;-65
2021/11/29 08:50:41;;;;;;;;;;;6.60;59.90;;;;;;5075930;28;20281;-65
2021/11/29 08:53:08;;;;;;;;;;;6.70;59.90;;;;;;5075793;28;19912;-65
2021/11/29 08:55:35;;;;;;;;;;;6.70;59.80;;;;;;5075816;28;20005;-65
2021/11/29 08:58:01;;;;;;;;;;;6.70;59.80;;;;;;5075758;28;19955;-65
2021/11/29 09:00:28;;;;;;;;;;;6.80;59.80;;;;;;5057812;28;19916;-65
2021/11/29 09:02:53;;;;;;;;;;;6.80;59.80;;;;;;5075415;28;19999;-65
2021/11/29 09:05:19;;;;;;;;;;;6.80;59.60;;;;;;5074176;28;20000;-65
2021/11/29 09:07:45;;;;;;;;;;;6.90;59.50;;;;;;5075631;28;19909;-65
2021/11/29 09:10:12;;;;;;;;;;;6.90;59.40;;;;;;5074257;28;20329;-66
2021/11/29 09:12:38;;;;;;;;;;;6.90;59.30;;;;;;5075490;28;19916;-65
2021/11/29 09:15:08;;;;;;;;;;;6.90;59.10;;;;;;5075180;28;19921;-65
2021/11/29 09:17:34;;;;;;;;;;;6.90;58.90;;;;;;5075427;28;19962;-65
2021/11/29 09:20:01;;;;;;;;;;;6.90;58.90;;;;;;5075379;28;19958;-65
2021/11/29 09:22:27;;;;;;;;;;;6.80;58.70;;;;;;5075433;28;19916;-65
2021/11/29 09:24:53;;;;;;;;;;;6.80;58.80;;;;;;5075307;28;19909;-65
2021/11/29 09:27:18;;;;;;;;;;;6.80;58.80;;;;;;5075230;28;19936;-65
2021/11/29 09:29:49;;;;;;;;;;;6.80;58.90;;;;;;5075224;28;19908;-64
2021/11/29 09:32:14;;;;;;;;;;;6.70;58.90;;;;;;5056826;28;19913;-64
2021/11/29 09:34:40;;;;;;;;;;;6.70;58.90;;;;;;5074526;28;19953;-64
2021/11/29 09:37:06;;;;;;;;;;;6.70;59.00;;;;;;5074828;28;19905;-64
2021/11/29 09:39:31;;;;;;;;;;;6.70;59.20;;;;;;5075168;28;20370;-64
2021/11/29 09:41:57;;;;;;;;;;;6.70;59.30;;;;;;5075092;28;19911;-64
2021/11/29 09:44:22;;;;;;;;;;;6.80;59.40;;;;;;5074854;28;19909;-64
2021/11/29 09:46:48;;;;;;;;;;;6.80;59.40;;;;;;5074838;28;19909;-64
2021/11/29 09:49:14;;;;;;;;;;;6.80;59.40;;;;;;5074815;28;19958;-64
2021/11/29 09:51:40;;;;;;;;;;;6.80;59.40;;;;;;5074714;28;20305;-64
2021/11/29 09:54:08;;;;;;;;;;;6.90;59.50;;;;;;5057089;28;19913;-64
2021/11/29 09:56:34;;;;;;;;;;;6.90;59.50;;;;;;5074450;28;20338;-65
2021/11/29 09:59:01;;;;;;;;;;;6.90;59.50;;;;;;5074513;28;19909;-64
2021/11/29 10:01:27;;;;;;;;;;;6.90;59.50;;;;;;5074553;28;20004;-65
2021/11/29 10:03:52;;;;;;;;;;;7.00;59.60;;;;;;5074359;28;19952;-65
2021/11/29 10:06:18;;;;;;;;;;;7.00;59.60;;;;;;5074457;28;20370;-65
2021/11/29 10:08:44;;;;;;;;;;;7.10;59.60;;;;;;5074416;28;19916;-65
2021/11/29 10:11:11;;;;;;;;;;;7.20;59.70;;;;;;5074493;28;19915;-65
2021/11/29 10:13:54;;;;;;;;;;;7.20;59.70;;;;;;5074497;28;19908;-64
2021/11/29 10:16:31;;;;;;;;;;;7.30;59.70;;;;;;5073830;28;19920;-65
2021/11/29 10:18:57;;;;;;;;;;;7.50;59.80;;;;;;5074271;28;19908;-65
2021/11/29 10:21:23;;;;;;;;;;;7.60;60.50;;;;;;5074106;28;20354;-65
2021/11/29 10:23:50;;;;;;;;;;;7.70;59.70;;;;;;5074094;28;19909;-64
2021/11/29 10:26:21;;;;;;;;;;;7.80;59.60;;;;;;5073916;28;19966;-65
2021/11/29 10:28:55;;;;;;;;;;;7.90;59.40;;;;;;5073969;28;19912;-65
2021/11/29 10:31:32;;;;;;;;;;;7.90;59.30;;;;;;5073817;28;19919;-65
2021/11/29 10:34:09;;;;;;;;;;;8.00;59.20;;;;;;5073928;28;19916;-65
2021/11/29 10:36:38;;;;;;;;;;;8.10;59.20;;;;;;5073597;28;19911;-65
2021/11/29 10:39:08;;;;;;;;;;;8.20;59.10;;;;;;5073763;28;19957;-65
2021/11/29 10:41:35;;;;;;;;;;;8.30;59.10;;;;;;5055819;28;19908;-64
2021/11/29 10:44:02;;;;;;;;;;;8.30;58.90;;;;;;5073727;28;20373;-65
2021/11/29 10:46:30;;;;;;;;;;;8.40;58.60;;;;;;5073681;28;20388;-65
2021/11/29 10:48:57;;;;;;;;;;;8.40;58.50;;;;;;5073570;28;19908;-65
2021/11/29 10:51:24;;;;;;;;;;;8.40;58.30;;;;;;5073503;28;19935;-65
2021/11/29 10:53:49;;;;;;;;;;;8.40;58.10;;;;;;5073603;28;19987;-65
2021/11/29 10:56:15;;;;;;;;;;;8.30;58.00;;;;;;5073501;28;19948;-65
2021/11/29 10:58:41;;;;;;;;;;;8.30;58.00;;;;;;5073487;28;19916;-65
2021/11/29 11:01:07;;;;;;;;;;;8.30;58.00;;;;;;5073384;28;20003;-65
2021/11/29 11:03:53;;;;;;;;;;;8.20;58.00;;;;;;5073369;28;19996;-64
2021/11/29 11:06:26;;;;;;;;;;;8.20;58.00;;;;;;5073349;28;19927;-65
2021/11/29 11:08:52;;;;;;;;;;;8.20;58.20;;;;;;5073270;28;20000;-65
2021/11/29 11:11:32;;;;;;;;;;;8.10;58.20;;;;;;5073155;28;19962;-65
2021/11/29 11:13:58;;;;;;;;;;;8.20;58.30;;;;;;5073126;28;19909;-65
2021/11/29 11:16:42;;;;;;;;;;;8.20;58.30;;;;;;5073126;28;20019;-65
2021/11/29 11:19:11;;;;;;;;;;;8.20;58.30;;;;;;5073219;28;19955;-65
2021/11/29 11:21:37;;;;;;;;;;;8.20;58.20;;;;;;5073138;28;20038;-65
2021/11/29 11:24:21;;;;;;;;;;;8.20;58.30;;;;;;5073093;28;19995;-65
2021/11/29 11:26:48;;;;;;;;;;;8.30;58.50;;;;;;5072909;28;19909;-65
2021/11/29 11:29:14;;;;;;;;;;;8.40;58.70;;;;;;5072277;28;19909;-65
2021/11/29 11:31:40;;;;;;;;;;;8.40;58.70;;;;;;5072920;28;19919;-65
2021/11/29 11:34:05;;;;;;;;;;;8.50;58.80;;;;;;5072688;28;19909;-65
2021/11/29 11:36:31;;;;;;;;;;;8.60;58.70;;;;;;5072940;28;19999;-65
2021/11/29 11:39:04;;;;;;;;;;;8.70;58.60;;;;;;5072856;28;19909;-65
2021/11/29 11:41:31;;;;;;;;;;;8.80;58.50;;;;;;5073002;28;19908;-65
2021/11/29 11:43:57;;;;;;;;;;;8.90;58.20;;;;;;5072883;28;20376;-65
2021/11/29 11:46:25;;;;;;;;;;;8.90;58.00;;;;;;5072901;28;19909;-65
2021/11/29 11:48:51;;;;;;;;;;;9.00;57.90;;;;;;5072855;28;19909;-65
2021/11/29 11:51:17;;;;;;;;;;;9.00;57.80;;;;;;5072760;28;19939;-65
2021/11/29 11:53:43;;;;;;;;;;;9.10;57.80;;;;;;5072744;28;19908;-65
2021/11/29 11:56:08;;;;;;;;;;;9.10;57.60;;;;;;5073001;28;20354;-65
2021/11/29 11:58:55;;;;;;;;;;;9.20;57.70;;;;;;5072733;28;19912;-65
2021/11/29 12:01:25;;;;;;;;;;;9.20;57.50;;;;;;5072726;28;19991;-65
2021/11/29 12:03:51;;;;;;;;;;;9.30;56.90;;;;;;5072661;28;19915;-65
2021/11/29 12:06:18;;;;;;;;;;;9.30;56.70;;;;;;5072705;28;19908;-65
2021/11/29 12:08:48;;;;;;;;;;;9.30;56.70;;;;;;5072684;28;19948;-65
2021/11/29 12:11:22;;;;;;;;;;;9.30;56.70;;;;;;5072621;28;19905;-65
2021/11/29 12:13:49;;;;;;;;;;;9.30;56.60;;;;;;5072566;28;20426;-65
2021/11/29 12:16:29;;;;;;;;;;;9.30;56.40;;;;;;5072434;28;19921;-65
2021/11/29 12:18:54;;;;;;;;;;;9.30;56.30;;;;;;5072666;28;19909;-65
2021/11/29 12:21:22;;;;;;;;;;;9.30;56.30;;;;;;5072741;28;19915;-65
2021/11/29 12:23:50;;;;;;;;;;;9.20;56.30;;;;;;5072783;28;20242;-65
2021/11/29 12:26:38;;;;;;;;;;;9.20;56.30;;;;;;5071932;28;20214;-65
2021/11/29 12:29:04;;;;;;;;;;;9.20;56.30;;;;;;5072210;28;20091;-65
2021/11/29 12:31:34;;;;;;;;;;;9.20;56.40;;;;;;5072345;28;19998;-65
2021/11/29 12:34:04;;;;;;;;;;;9.20;56.30;;;;;;5072235;28;19909;-65
2021/11/29 12:36:48;;;;;;;;;;;9.20;56.30;;;;;;5072418;28;19904;-65
2021/11/29 12:39:35;;;;;;;;;;;9.10;56.30;;;;;;5072195;28;19909;-65
2021/11/29 12:42:01;;;;;;;;;;;9.10;56.30;;;;;;5075785;28;19908;-65
2021/11/29 12:44:45;;;;;;;;;;;9.10;56.20;;;;;;5076025;28;19912;-65
2021/11/29 12:47:18;;;;;;;;;;;9.00;56.10;;;;;;5075868;28;19909;-65
2021/11/29 12:49:44;;;;;;;;;;;9.00;56.10;;;;;;5075755;28;19948;-65
2021/11/29 12:52:30;;;;;;;;;;;8.90;56.20;;;;;;5075815;28;20376;-65
2021/11/29 12:54:57;;;;;;;;;;;8.80;56.20;;;;;;5068268;28;19915;-65
2021/11/29 12:57:28;;;;;;;;;;;8.80;56.50;;;;;;5075608;28;19904;-64
2021/11/29 12:59:56;;;;;;;;;;;8.70;56.40;;;;;;5075672;28;19948;-64
2021/11/29 13:02:39;;;;;;;;;;;8.50;56.50;;;;;;5075659;28;19926;-65
2021/11/29 13:05:26;;;;;;;;;;;8.40;56.60;;;;;;5075507;28;19954;-64
2021/11/29 13:07:57;;;;;;;;;;;8.30;56.80;;;;;;5054232;28;19989;-64
2021/11/29 13:10:43;;;;;;;;;;;8.20;57.10;;;;;;5075527;28;20262;-64
2021/11/29 13:13:27;;;;;;;;;;;8.10;57.20;;;;;;5054090;28;19917;-64
2021/11/29 13:15:55;;;;;;;;;;;8.00;57.40;;;;;;5075272;28;19927;-64
2021/11/29 13:18:39;;;;;;;;;;;7.90;57.70;;;;;;5075384;28;19920;-64
2021/11/29 13:21:05;;;;;;;;;;;7.90;57.90;;;;;;5075187;28;19935;-64
2021/11/29 13:23:30;;;;;;;;;;;7.80;58.10;;;;;;5075253;28;19961;-64
2021/11/29 13:26:05;;;;;;;;;;;7.70;58.20;;;;;;5075380;28;20350;-65
2021/11/29 13:28:31;;;;;;;;;;;7.70;58.30;;;;;;5075179;28;20332;-65
2021/11/29 13:30:57;;;;;;;;;;;7.70;58.50;;;;;;5075160;28;19908;-64
2021/11/29 13:33:22;;;;;;;;;;;7.60;58.60;;;;;;5074951;28;20322;-65
2021/11/29 13:35:48;;;;;;;;;;;7.60;58.70;;;;;;5074959;28;20007;-64
2021/11/29 13:38:14;;;;;;;;;;;7.60;58.80;;;;;;5074827;28;19999;-64
2021/11/29 13:40:40;;;;;;;;;;;7.50;58.90;;;;;;5074900;28;19999;-64
2021/11/29 13:43:05;;;;;;;;;;;7.40;58.90;;;;;;5074624;28;20423;-64
2021/11/29 13:45:33;;;;;;;;;;;7.40;59.10;;;;;;5056802;28;20267;-64
2021/11/29 13:48:10;;;;;;;;;;;7.40;59.20;;;;;;5074749;28;20428;-65
2021/11/29 13:50:39;;;;;;;;;;;7.40;59.40;;;;;;5074689;28;19923;-65
2021/11/29 13:53:09;;;;;;;;;;;7.40;59.50;;;;;;5073929;28;19912;-65
2021/11/29 13:55:43;;;;;;;;;;;7.40;59.60;;;;;;5074553;28;19938;-65
2021/11/29 13:58:09;;;;;;;;;;;7.40;59.70;;;;;;5074686;28;20392;-64
2021/11/29 14:00:36;;;;;;;;;;;7.40;59.90;;;;;;5074643;28;19935;-65
2021/11/29 14:03:09;;;;;;;;;;;7.40;59.90;;;;;;5074493;28;20378;-65
2021/11/29 14:05:37;;;;;;;;;;;7.40;59.80;;;;;;5074348;28;19916;-65
2021/11/29 14:08:05;;;;;;;;;;;7.40;59.80;;;;;;5074395;28;19957;-65
2021/11/29 14:10:36;;;;;;;;;;;7.50;59.90;;;;;;5074302;28;19999;-65
2021/11/29 14:13:02;;;;;;;;;;;7.50;60.00;;;;;;5074215;28;19912;-65
2021/11/29 14:15:32;;;;;;;;;;;7.50;60.00;;;;;;5074292;28;19916;-65
2021/11/29 14:17:58;;;;;;;;;;;7.50;60.00;;;;;;5074217;28;20042;-65
2021/11/29 14:20:26;;;;;;;;;;;7.50;59.80;;;;;;5074188;28;19928;-65
2021/11/29 14:22:52;;;;;;;;;;;7.50;60.60;;;;;;5074171;28;19963;-65
2021/11/29 14:25:18;;;;;;;;;;;7.50;59.90;;;;;;5073874;28;19927;-65
2021/11/29 14:27:45;;;;;;;;;;;7.40;59.90;;;;;;5073906;28;19958;-65
2021/11/29 14:30:11;;;;;;;;;;;7.40;59.80;;;;;;5073741;28;19909;-65